createdAt,value
2023-03-12T00:07:35.627Z,6.3
2023-03-12T00:37:53.633Z,5.8
2023-03-12T01:08:11.004Z,5
2023-03-12T01:38:28.983Z,5.2
2023-03-12T02:08:50.183Z,5.4
2023-03-12T02:39:07.406Z,5.4
2023-03-12T03:09:26.976Z,5.3
2023-03-12T03:39:45.701Z,5.7
2023-03-12T04:10:08.418Z,5.2
2023-03-12T04:40:25.837Z,6.3
2023-03-12T05:10:45.319Z,6.1
2023-03-12T05:41:03.176Z,6.2
2023-03-12T06:11:21.551Z,7
2023-03-12T06:41:39.575Z,7.5
2023-03-12T07:11:57.670Z,7.1
2023-03-12T07:42:20.567Z,7.8
2023-03-12T08:12:39.139Z,8.9
2023-03-12T08:42:58.614Z,9.5
2023-03-12T09:13:22.456Z,7.6
2023-03-12T09:43:42.641Z,8.7
2023-03-12T10:14:23.040Z,10.9
2023-03-12T10:44:37.439Z,10.1
2023-03-12T11:15:00.767Z,8.6
2023-03-12T11:45:25.904Z,11.9
2023-03-12T12:15:49.699Z,11.5
2023-03-12T12:46:08.993Z,10.7
2023-03-12T13:16:32.614Z,9.9
2023-03-12T13:46:53.164Z,10.6
2023-03-12T14:17:09.332Z,9.6
2023-03-12T14:47:26.342Z,10.6
2023-03-12T15:17:45.360Z,11.6
2023-03-12T15:48:01.196Z,10.3
2023-03-12T16:18:25.497Z,11.7
2023-03-12T16:48:43.694Z,13.7
2023-03-12T17:18:59.601Z,10.5
2023-03-12T17:49:16.333Z,14.3
2023-03-12T18:19:35.617Z,14.6
2023-03-12T18:49:56.488Z,12
2023-03-12T19:20:15.960Z,7.4
2023-03-12T19:50:34.068Z,9.3
2023-03-12T20:20:52.483Z,10.1
2023-03-12T20:51:08.537Z,4.6
2023-03-12T21:21:26.557Z,3.9
2023-03-12T21:51:43.674Z,4.6
2023-03-12T22:22:02.802Z,3.2
2023-03-12T22:52:21.307Z,3.1
2023-03-12T23:22:39.356Z,2.9
2023-03-12T23:52:55.843Z,3.5
